Terminal Aerodrome Forecast
Issued by NWS

Home | Current Version | Previous Version | Text Only | Print | Product List | Glossary On
Versions: 1 2 3 4 5 6 7 8 9 10 11 12 13 14 15 16 17 18 19
000
FTUS42 KJAX 230500
TAFCRG
TAF
KCRG 230520Z 2306/2406 VRB05KT P6SM VCSH SCT020 OVC040
      TEMPO 2306/2308 5SM SHRA OVC020
     FM231600 05012G18KT P6SM VCSH BKN025 OVC050
     FM240200 04010KT P6SM VCSH BKN020 OVC040=

USA.gov is the U.S. government's official web portal to all federal, state and local government web resources and services.